createdAt,value
2018-04-28T00:01:17.326Z,94896
2018-04-28T00:03:48.141Z,94894
2018-04-28T00:06:18.918Z,94890
2018-04-28T00:08:49.753Z,94904
2018-04-28T00:11:19.711Z,94902
2018-04-28T00:13:50.548Z,94902
2018-04-28T00:16:26.095Z,94903
2018-04-28T00:19:06.526Z,94904
2018-04-28T00:24:54.343Z,94899
2018-04-28T00:27:28.139Z,94900
2018-04-28T00:30:02.973Z,94899
2018-04-28T00:32:33.752Z,94903
2018-04-28T00:35:05.563Z,94907
2018-04-28T00:37:47.761Z,94911
2018-04-28T00:40:31.347Z,94907
2018-04-28T00:43:03.261Z,94905
2018-04-28T00:45:35.606Z,94907
2018-04-28T00:48:26.784Z,94906
2018-04-28T00:51:09.080Z,94905
2018-04-28T00:53:39.762Z,94908
2018-04-28T00:56:28.219Z,94911
2018-04-28T00:58:58.979Z,94917
2018-04-28T01:01:44.586Z,94919
2018-04-28T01:04:28.084Z,94922
2018-04-28T01:06:58.056Z,94924
2018-04-28T01:09:28.021Z,94933
2018-04-28T01:11:58.119Z,94930
2018-04-28T01:14:41.201Z,94925
2018-04-28T01:17:28.854Z,94929
2018-04-28T01:20:00.539Z,94933
2018-04-28T01:22:35.322Z,94934
2018-04-28T01:25:12.132Z,94930
2018-04-28T01:27:59.520Z,94934
2018-04-28T01:34:10.059Z,94938
2018-04-28T01:36:57.472Z,94940
2018-04-28T01:39:42.009Z,94939
2018-04-28T01:42:16.322Z,94948
2018-04-28T01:48:23.838Z,94950
2018-04-28T01:54:33.535Z,94952
2018-04-28T01:57:06.718Z,94957
2018-04-28T01:59:54.031Z,94954
2018-04-28T02:05:38.711Z,94965
2018-04-28T02:08:09.551Z,94968
2018-04-28T02:10:46.839Z,94968
2018-04-28T02:16:35.342Z,94975
2018-04-28T02:22:38.387Z,94982
2018-04-28T02:25:18.913Z,94983
2018-04-28T02:28:09.431Z,94982
2018-04-28T02:33:53.691Z,94985
2018-04-28T02:36:47.159Z,94985
2018-04-28T02:39:32.559Z,94986
2018-04-28T02:42:07.688Z,94991
2018-04-28T02:44:42.704Z,94991
2018-04-28T02:47:21.926Z,94986
2018-04-28T02:50:01.379Z,94991
2018-04-28T02:56:30.235Z,94994
2018-04-28T02:59:02.535Z,94990
2018-04-28T03:04:56.020Z,94994
2018-04-28T03:10:51.537Z,94999
2018-04-28T03:13:26.767Z,94999
2018-04-28T03:16:00.685Z,95003
2018-04-28T03:18:46.976Z,95004
2018-04-28T03:21:18.352Z,95001
2018-04-28T03:23:59.417Z,95006
2018-04-28T03:26:32.426Z,95004
2018-04-28T03:29:14.605Z,95006
2018-04-28T03:31:45.058Z,95004
2018-04-28T03:34:33.862Z,95005
2018-04-28T03:40:06.255Z,95010
2018-04-28T03:45:39.891Z,95009
2018-04-28T03:48:27.521Z,95010
2018-04-28T03:51:24.483Z,95016
2018-04-28T03:53:57.738Z,95018
2018-04-28T03:56:47.220Z,95026
2018-04-28T03:59:35.320Z,95025
2018-04-28T04:02:22.870Z,95028
2018-04-28T04:05:02.194Z,95026
2018-04-28T04:07:48.579Z,95028
2018-04-28T04:13:46.462Z,95035
2018-04-28T04:19:57.567Z,95045
2018-04-28T04:25:46.940Z,95048
2018-04-28T04:28:40.603Z,95051
2018-04-28T04:34:20.594Z,95053
2018-04-28T04:37:01.565Z,95053
2018-04-28T04:39:46.911Z,95052
2018-04-28T04:45:24.722Z,95061
2018-04-28T04:48:10.100Z,95062
2018-04-28T04:51:00.422Z,95065
2018-04-28T04:56:51.676Z,95064
2018-04-28T05:02:47.200Z,95075
2018-04-28T05:09:04.151Z,95077
2018-04-28T05:11:44.851Z,95074
2018-04-28T05:14:21.177Z,95075
2018-04-28T05:17:00.272Z,95076
2018-04-28T05:23:34.511Z,95074
2018-04-28T05:29:47.540Z,95078
2018-04-28T05:32:46.901Z,95083
2018-04-28T05:35:31.280Z,95080
2018-04-28T05:41:54.321Z,95086
2018-04-28T05:47:46.410Z,95090
2018-04-28T05:50:34.261Z,95086
2018-04-28T05:53:25.562Z,95091
2018-04-28T05:59:23.293Z,95098
2018-04-28T06:02:08.925Z,95097
2018-04-28T06:08:23.484Z,95100
2018-04-28T06:11:18.090Z,95099
2018-04-28T06:14:05.647Z,95104
2018-04-28T06:20:19.785Z,95103
2018-04-28T06:22:54.042Z,95100
2018-04-28T06:25:24.465Z,95097
2018-04-28T06:27:55.223Z,95101
2018-04-28T06:30:25.651Z,95096
2018-04-28T06:32:56.063Z,95094
2018-04-28T06:35:26.458Z,95094
2018-04-28T06:37:56.092Z,95096
2018-04-28T06:40:26.540Z,95096
2018-04-28T06:42:56.968Z,95090
2018-04-28T06:45:27.378Z,95094
2018-04-28T06:47:57.840Z,95095
2018-04-28T06:50:27.482Z,95091
2018-04-28T06:52:57.155Z,95093
2018-04-28T06:55:26.832Z,95093
2018-04-28T06:57:57.267Z,95083
2018-04-28T07:00:28.579Z,95084
2018-04-28T07:02:58.242Z,95080
2018-04-28T07:05:27.878Z,95086
2018-04-28T07:07:57.468Z,95082
2018-04-28T07:10:27.101Z,95078
2018-04-28T07:12:56.727Z,95076
2018-04-28T07:15:27.168Z,95078
2018-04-28T07:17:57.563Z,95073
2018-04-28T07:20:27.226Z,95070
2018-04-28T07:22:57.618Z,95063
2018-04-28T07:25:27.294Z,95062
2018-04-28T07:27:56.954Z,95066
2018-04-28T07:30:27.421Z,95059
2018-04-28T07:32:57.115Z,95058
2018-04-28T07:35:27.063Z,95062
2018-04-28T07:37:56.719Z,95059
2018-04-28T07:40:27.036Z,95060
2018-04-28T07:42:57.490Z,95051
2018-04-28T07:45:27.476Z,95051
2018-04-28T07:47:57.954Z,95048
2018-04-28T07:50:28.456Z,95039
2018-04-28T07:52:58.060Z,95038
2018-04-28T07:55:28.563Z,95041
2018-04-28T07:57:58.219Z,95043
2018-04-28T08:00:27.876Z,95035
2018-04-28T08:02:58.358Z,95034
2018-04-28T08:05:28.010Z,95032
2018-04-28T08:07:58.506Z,95030
2018-04-28T08:10:28.197Z,95023
2018-04-28T08:12:57.853Z,95026
2018-04-28T08:15:28.283Z,95023
2018-04-28T08:17:58.737Z,95022
2018-04-28T08:20:28.407Z,95017
2018-04-28T08:22:58.871Z,95019
2018-04-28T08:25:29.338Z,95013
2018-04-28T08:27:59.091Z,95009
2018-04-28T08:30:29.524Z,95007
2018-04-28T08:32:59.973Z,95004
2018-04-28T08:35:29.691Z,94996
2018-04-28T08:37:59.378Z,95003
2018-04-28T08:40:29.842Z,94996
2018-04-28T08:42:59.505Z,94995
2018-04-28T08:45:29.988Z,94987
2018-04-28T08:47:59.635Z,94985
2018-04-28T08:50:30.074Z,94991
2018-04-28T08:52:59.795Z,94986
2018-04-28T08:55:29.422Z,94982
2018-04-28T08:57:59.075Z,94984
2018-04-28T09:00:32.057Z,94976
2018-04-28T09:03:02.423Z,94980
2018-04-28T09:05:32.090Z,94974
2018-04-28T09:08:02.475Z,94967
2018-04-28T09:10:32.364Z,94966
2018-04-28T09:13:03.035Z,94967
2018-04-28T09:15:32.903Z,94962
2018-04-28T09:18:03.689Z,94955
2018-04-28T09:20:33.607Z,94952
2018-04-28T09:23:03.522Z,94953
2018-04-28T09:25:33.423Z,94949
2018-04-28T09:28:03.365Z,94944
2018-04-28T09:30:33.251Z,94944
2018-04-28T09:33:04.004Z,94938
2018-04-28T09:35:33.936Z,94938
2018-04-28T09:38:03.886Z,94940
2018-04-28T09:40:34.647Z,94936
2018-04-28T09:43:04.599Z,94930
2018-04-28T09:45:35.303Z,94928
2018-04-28T09:48:06.024Z,94923
2018-04-28T09:50:35.906Z,94924
2018-04-28T09:53:06.664Z,94916
2018-04-28T09:55:37.443Z,94911
2018-04-28T09:58:08.119Z,94908
2018-04-28T10:00:53.737Z,94901
2018-04-28T10:03:29.403Z,94897
2018-04-28T10:06:00.320Z,94893
2018-04-28T10:08:31.095Z,94887
2018-04-28T10:11:01.791Z,94884
2018-04-28T10:13:32.555Z,94881
2018-04-28T10:16:03.235Z,94871
2018-04-28T10:18:33.123Z,94879
2018-04-28T10:21:03.911Z,94865
2018-04-28T10:23:33.814Z,94862
2018-04-28T10:26:03.787Z,94856
2018-04-28T10:28:34.476Z,94856
2018-04-28T10:31:05.205Z,94850
2018-04-28T10:33:35.938Z,94844
2018-04-28T10:36:05.861Z,94844
2018-04-28T10:38:36.552Z,94837
2018-04-28T10:41:06.468Z,94832
2018-04-28T10:43:37.198Z,94829
2018-04-28T10:46:08.017Z,94826
2018-04-28T10:48:37.934Z,94820
2018-04-28T10:51:08.595Z,94821
2018-04-28T10:53:38.518Z,94818
2018-04-28T10:56:09.205Z,94818
2018-04-28T10:58:39.873Z,94811
2018-04-28T11:01:09.756Z,94809
2018-04-28T11:03:41.267Z,94806
2018-04-28T11:06:12.074Z,94801
2018-04-28T11:08:42.771Z,94793
2018-04-28T11:11:13.532Z,94783
2018-04-28T11:13:43.414Z,94787
2018-04-28T11:16:13.391Z,94781
2018-04-28T11:18:43.352Z,94780
2018-04-28T11:21:14.077Z,94774
2018-04-28T11:23:44.809Z,94770
2018-04-28T11:26:14.682Z,94769
2018-04-28T11:28:44.653Z,94764
2018-04-28T11:31:14.543Z,94759
2018-04-28T11:33:45.214Z,94761
2018-04-28T11:36:15.154Z,94749
2018-04-28T11:38:45.063Z,94745
2018-04-28T11:41:14.957Z,94743
2018-04-28T11:43:45.748Z,94740
2018-04-28T11:46:15.623Z,94736
2018-04-28T11:48:45.482Z,94732
2018-04-28T11:51:16.184Z,94734
2018-04-28T11:53:46.086Z,94728
2018-04-28T11:56:16.796Z,94721
2018-04-28T11:58:47.494Z,94714
2018-04-28T12:01:18.142Z,94710
2018-04-28T12:03:48.822Z,94713
2018-04-28T12:06:19.493Z,94704
2018-04-28T12:08:49.426Z,94701
2018-04-28T12:11:20.130Z,94695
2018-04-28T12:13:51.446Z,94694
2018-04-28T12:16:21.420Z,94686
2018-04-28T12:18:53.147Z,94685
2018-04-28T12:21:23.969Z,94678
2018-04-28T12:23:54.762Z,94670
2018-04-28T12:26:24.867Z,94676
2018-04-28T12:28:54.983Z,94670
2018-04-28T12:31:25.014Z,94666
2018-04-28T12:33:55.024Z,94663
2018-04-28T12:36:25.837Z,94659
2018-04-28T12:38:56.656Z,94655
2018-04-28T12:41:27.485Z,94652
2018-04-28T12:43:58.268Z,94652
2018-04-28T12:46:28.252Z,94643
2018-04-28T12:48:59.108Z,94639
2018-04-28T12:51:29.798Z,94636
2018-04-28T12:53:59.812Z,94632
2018-04-28T12:56:30.646Z,94643
2018-04-28T12:59:01.497Z,94633
2018-04-28T13:01:32.402Z,94640
2018-04-28T13:04:02.427Z,94632
2018-04-28T13:06:32.497Z,94631
2018-04-28T13:09:02.518Z,94630
2018-04-28T13:11:32.572Z,94632
2018-04-28T13:14:02.634Z,94626
2018-04-28T13:16:33.420Z,94621
2018-04-28T13:19:04.307Z,94620
2018-04-28T13:21:35.074Z,94613
2018-04-28T13:24:05.104Z,94614
2018-04-28T13:26:36.276Z,94610
2018-04-28T13:29:07.207Z,94606
2018-04-28T13:31:37.198Z,94590
2018-04-28T13:34:08.125Z,94594
2018-04-28T13:36:38.072Z,94591
2018-04-28T13:39:08.853Z,94591
2018-04-28T13:41:38.944Z,94591
2018-04-28T13:44:09.715Z,94586
2018-04-28T13:46:40.541Z,94578
2018-04-28T13:49:11.423Z,94573
2018-04-28T13:51:41.424Z,94569
2018-04-28T13:54:11.343Z,94568
2018-04-28T13:56:41.263Z,94564
2018-04-28T13:59:11.130Z,94566
2018-04-28T14:01:41.784Z,94558
2018-04-28T14:04:12.409Z,94556
2018-04-28T14:06:43.123Z,94555
2018-04-28T14:09:13.904Z,94558
2018-04-28T14:11:43.826Z,94561
2018-04-28T14:14:14.674Z,94552
2018-04-28T14:16:44.526Z,94552
2018-04-28T14:19:15.226Z,94553
2018-04-28T14:21:45.115Z,94558
2018-04-28T14:24:15.094Z,94555
2018-04-28T14:26:45.006Z,94551
2018-04-28T14:29:15.931Z,94549
2018-04-28T14:31:46.610Z,94551
2018-04-28T14:34:16.517Z,94557
2018-04-28T14:36:46.419Z,94539
2018-04-28T14:39:17.171Z,94542
2018-04-28T14:41:47.076Z,94541
2018-04-28T14:44:17.711Z,94534
2018-04-28T14:46:47.593Z,94531
2018-04-28T14:49:18.247Z,94536
2018-04-28T14:51:48.914Z,94535
2018-04-28T14:54:18.836Z,94530
2018-04-28T14:56:48.725Z,94530
2018-04-28T14:59:19.471Z,94528
2018-04-28T15:01:49.420Z,94524
2018-04-28T15:04:20.110Z,94523
2018-04-28T15:06:50.009Z,94514
2018-04-28T15:09:19.872Z,94520
2018-04-28T15:11:50.594Z,94517
2018-04-28T15:14:20.456Z,94508
2018-04-28T15:16:50.375Z,94508
2018-04-28T15:19:20.995Z,94513
2018-04-28T15:21:51.670Z,94515
2018-04-28T15:24:21.523Z,94523
2018-04-28T15:26:52.190Z,94515
2018-04-28T15:29:22.166Z,94516
2018-04-28T15:31:52.787Z,94518
2018-04-28T15:34:22.646Z,94518
2018-04-28T15:36:53.300Z,94517
2018-04-28T15:39:23.316Z,94519
2018-04-28T15:41:53.411Z,94516
2018-04-28T15:44:23.331Z,94510
2018-04-28T15:46:54.253Z,94522
2018-04-28T15:49:25.131Z,94509
2018-04-28T15:51:55.006Z,94509
2018-04-28T15:54:25.870Z,94512
2018-04-28T15:56:55.815Z,94510
2018-04-28T15:59:26.562Z,94516
2018-04-28T16:01:57.428Z,94518
2018-04-28T16:04:28.100Z,94515
2018-04-28T16:06:58.837Z,94515
2018-04-28T16:09:28.851Z,94507
2018-04-28T16:11:58.703Z,94510
2018-04-28T16:14:29.378Z,94509
2018-04-28T16:17:00.327Z,94513
2018-04-28T16:19:32.757Z,94510
2018-04-28T16:22:03.314Z,94509
2018-04-28T16:24:35.643Z,94509
2018-04-28T16:27:07.034Z,94513
2018-04-28T16:29:36.987Z,94512
2018-04-28T16:32:06.891Z,94501
2018-04-28T16:34:36.823Z,94518
2018-04-28T16:37:07.678Z,94520
2018-04-28T16:39:38.409Z,94529
2018-04-28T16:42:09.143Z,94523
2018-04-28T16:44:39.811Z,94535
2018-04-28T16:47:10.584Z,94532
2018-04-28T16:49:41.291Z,94538
2018-04-28T16:52:11.166Z,94542
2018-04-28T16:54:41.831Z,94550
2018-04-28T16:57:11.737Z,94553
2018-04-28T16:59:41.671Z,94549
2018-04-28T17:02:11.575Z,94552
2018-04-28T17:04:41.466Z,94549
2018-04-28T17:07:12.131Z,94557
2018-04-28T17:09:42.059Z,94558
2018-04-28T17:12:11.952Z,94570
2018-04-28T17:14:42.610Z,94571
2018-04-28T17:17:12.609Z,94560
2018-04-28T17:19:43.306Z,94563
2018-04-28T17:22:13.316Z,94552
2018-04-28T17:24:44.056Z,94558
2018-04-28T17:27:14.818Z,94562
2018-04-28T17:29:44.711Z,94566
2018-04-28T17:32:14.614Z,94567
2018-04-28T17:34:45.284Z,94569
2018-04-28T17:37:15.417Z,94569
2018-04-28T17:39:47.799Z,94572
2018-04-28T17:42:17.906Z,94580
2018-04-28T17:44:47.823Z,94574
2018-04-28T17:47:18.484Z,94575
2018-04-28T17:49:49.235Z,94579
2018-04-28T17:52:20.011Z,94574
2018-04-28T17:54:49.884Z,94578
2018-04-28T17:57:20.630Z,94582
2018-04-28T17:59:51.376Z,94581
2018-04-28T18:02:21.587Z,94593
2018-04-28T18:04:51.480Z,94596
2018-04-28T18:07:21.399Z,94607
2018-04-28T18:09:52.045Z,94606
2018-04-28T18:12:21.892Z,94611
2018-04-28T18:14:51.761Z,94617
2018-04-28T18:17:21.667Z,94614
2018-04-28T18:19:52.355Z,94622
2018-04-28T18:22:22.229Z,94617
2018-04-28T18:24:52.170Z,94624
2018-04-28T18:27:22.061Z,94628
2018-04-28T18:29:52.699Z,94629
2018-04-28T18:32:22.604Z,94634
2018-04-28T18:34:53.271Z,94641
2018-04-28T18:37:23.217Z,94642
2018-04-28T18:39:53.911Z,94652
2018-04-28T18:42:24.791Z,94656
2018-04-28T18:44:55.496Z,94658
2018-04-28T18:47:25.500Z,94657
2018-04-28T18:49:56.220Z,94658
2018-04-28T18:52:26.143Z,94662
2018-04-28T18:54:56.838Z,94665
2018-04-28T18:57:26.731Z,94666
2018-04-28T18:59:57.506Z,94671
2018-04-28T19:02:27.391Z,94670
2018-04-28T19:04:58.133Z,94680
2018-04-28T19:07:28.753Z,94683
2018-04-28T19:09:58.824Z,94684
2018-04-28T19:12:28.998Z,94682
2018-04-28T19:14:58.892Z,94682
2018-04-28T19:17:28.776Z,94682
2018-04-28T19:19:58.704Z,94689
2018-04-28T19:22:28.683Z,94689
2018-04-28T19:24:58.535Z,94691
2018-04-28T19:27:28.435Z,94697
2018-04-28T19:29:58.283Z,94699
2018-04-28T19:32:28.190Z,94703
2018-04-28T19:34:58.878Z,94702
2018-04-28T19:37:28.834Z,94692
2018-04-28T19:39:59.499Z,94692
2018-04-28T19:42:30.139Z,94690
2018-04-28T19:45:00.042Z,94693
2018-04-28T19:47:30.669Z,94694
2018-04-28T19:50:01.328Z,94697
2018-04-28T19:52:31.216Z,94700
2018-04-28T19:55:01.907Z,94698
2018-04-28T19:57:31.817Z,94707
2018-04-28T20:00:01.750Z,94708
2018-04-28T20:02:32.480Z,94716
2018-04-28T20:05:03.347Z,94709
2018-04-28T20:07:34.086Z,94700
2018-04-28T20:10:04.837Z,94708
2018-04-28T20:12:35.570Z,94712
2018-04-28T20:15:05.523Z,94709
2018-04-28T20:17:36.325Z,94712
2018-04-28T20:20:07.165Z,94710
2018-04-28T20:22:54.874Z,94711
2018-04-28T20:25:25.566Z,94715
2018-04-28T20:27:56.296Z,94717
2018-04-28T20:30:27.039Z,94723
2018-04-28T20:32:58.123Z,94721
2018-04-28T20:35:28.013Z,94715
2018-04-28T20:37:58.750Z,94721
2018-04-28T20:40:28.666Z,94728
2018-04-28T20:42:59.355Z,94726
2018-04-28T20:45:29.298Z,94733
2018-04-28T20:47:59.977Z,94729
2018-04-28T20:50:29.886Z,94728
2018-04-28T20:53:00.598Z,94731
2018-04-28T20:55:31.448Z,94729
2018-04-28T20:58:02.049Z,94723
2018-04-28T21:00:32.742Z,94724
2018-04-28T21:03:02.620Z,94725
2018-04-28T21:05:33.723Z,94726
2018-04-28T21:08:03.724Z,94726
2018-04-28T21:10:33.614Z,94725
2018-04-28T21:13:03.495Z,94721
2018-04-28T21:15:33.434Z,94716
2018-04-28T21:18:04.223Z,94721
2018-04-28T21:20:34.990Z,94718
2018-04-28T21:23:04.892Z,94720
2018-04-28T21:25:35.522Z,94717
2018-04-28T21:28:06.194Z,94717
2018-04-28T21:30:36.087Z,94722
2018-04-28T21:33:06.025Z,94725
2018-04-28T21:35:35.906Z,94726
2018-04-28T21:38:06.562Z,94729
2018-04-28T21:40:36.507Z,94734
2018-04-28T21:43:07.318Z,94736
2018-04-28T21:45:37.271Z,94732
2018-04-28T21:48:07.963Z,94735
2018-04-28T21:50:38.627Z,94736
2018-04-28T21:53:09.376Z,94735
2018-04-28T21:55:40.008Z,94737
2018-04-28T21:58:10.730Z,94745
2018-04-28T22:00:41.705Z,94745
2018-04-28T22:03:11.702Z,94737
2018-04-28T22:05:41.712Z,94744
2018-04-28T22:08:12.421Z,94742
2018-04-28T22:10:43.171Z,94745
2018-04-28T22:13:13.870Z,94747
2018-04-28T22:15:44.551Z,94749
2018-04-28T22:18:15.250Z,94751
2018-04-28T22:20:45.132Z,94741
2018-04-28T22:23:15.883Z,94741
2018-04-28T22:25:46.591Z,94746
2018-04-28T22:28:16.503Z,94745
2018-04-28T22:30:46.480Z,94741
2018-04-28T22:33:16.412Z,94736
2018-04-28T22:35:46.302Z,94730
2018-04-28T22:38:16.245Z,94727
2018-04-28T22:40:46.919Z,94730
2018-04-28T22:43:16.833Z,94738
2018-04-28T22:45:46.956Z,94741
2018-04-28T22:48:16.883Z,94739
2018-04-28T22:50:46.771Z,94740
2018-04-28T22:53:16.687Z,94740
2018-04-28T22:55:46.651Z,94741
2018-04-28T22:58:17.351Z,94742
2018-04-28T23:00:48.107Z,94743
2018-04-28T23:03:18.855Z,94749
2018-04-28T23:05:48.838Z,94748
2018-04-28T23:08:18.776Z,94753
2018-04-28T23:10:48.711Z,94740
2018-04-28T23:13:19.471Z,94735
2018-04-28T23:15:49.396Z,94736
2018-04-28T23:18:19.334Z,94723
2018-04-28T23:20:49.252Z,94727
2018-04-28T23:23:19.171Z,94731
2018-04-28T23:25:49.893Z,94726
2018-04-28T23:28:19.814Z,94736
2018-04-28T23:30:49.918Z,94734
2018-04-28T23:33:19.886Z,94736
2018-04-28T23:35:50.538Z,94733
2018-04-28T23:38:21.337Z,94727
2018-04-28T23:40:52.072Z,94727
2018-04-28T23:43:22.770Z,94727
2018-04-28T23:45:52.687Z,94724
2018-04-28T23:48:22.624Z,94713
2018-04-28T23:50:53.330Z,94709
2018-04-28T23:53:24.062Z,94703
2018-04-28T23:55:54.752Z,94697
2018-04-28T23:58:25.387Z,94695
